createdAt,value
2022-08-12T00:00:54.431Z,1.10
2022-08-12T00:05:16.814Z,1.27
2022-08-12T00:09:38.164Z,1.15
2022-08-12T00:13:58.989Z,1.23
2022-08-12T00:18:20.325Z,1.05
2022-08-12T00:22:42.601Z,1.30
2022-08-12T00:27:05.815Z,1.00
2022-08-12T00:31:26.643Z,1.30
2022-08-12T00:35:46.940Z,0.95
2022-08-12T00:40:11.394Z,0.90
2022-08-12T00:44:16.966Z,1.00
2022-08-12T00:48:20.678Z,0.90
2022-08-12T00:52:24.425Z,0.85
2022-08-12T00:56:29.778Z,0.80
2022-08-12T01:00:33.316Z,1.08
2022-08-12T01:04:58.166Z,1.00
2022-08-12T01:09:18.896Z,0.93
2022-08-12T01:13:24.154Z,0.80
2022-08-12T01:17:27.442Z,0.90
2022-08-12T01:21:50.789Z,0.82
2022-08-12T01:25:57.174Z,0.80
2022-08-12T01:30:03.887Z,0.80
2022-08-12T01:34:35.946Z,1.10
2022-08-12T01:38:34.856Z,0.95
2022-08-12T01:42:46.188Z,1.00
2022-08-12T01:46:59.737Z,0.90
2022-08-12T01:51:07.989Z,0.90
2022-08-12T01:55:12.491Z,0.75
2022-08-12T01:59:38.760Z,0.90
2022-08-12T02:04:22.003Z,1.13
2022-08-12T02:08:52.492Z,0.93
2022-08-12T02:13:07.586Z,0.90
2022-08-12T02:17:54.566Z,0.90
2022-08-12T02:22:04.728Z,0.90
2022-08-12T02:26:10.000Z,0.93
2022-08-12T02:30:16.017Z,1.10
2022-08-12T02:34:23.048Z,1.10
2022-08-12T02:38:29.073Z,0.90
2022-08-12T02:42:35.097Z,0.90
2022-08-12T02:46:40.554Z,1.10
2022-08-12T02:50:48.058Z,0.90
2022-08-12T02:54:58.378Z,1.05
2022-08-12T02:59:02.701Z,0.90
2022-08-12T03:03:08.356Z,1.05
2022-08-12T03:07:19.087Z,1.15
2022-08-12T03:11:28.393Z,0.85
2022-08-12T03:15:34.113Z,1.23
2022-08-12T03:20:08.730Z,1.00
2022-08-12T03:24:05.901Z,1.25
2022-08-12T03:28:23.628Z,1.13
2022-08-12T03:32:36.163Z,1.10
2022-08-12T03:36:42.133Z,1.00
2022-08-12T03:41:15.354Z,1.05
2022-08-12T03:45:51.830Z,1.00
2022-08-12T03:50:14.056Z,0.93
2022-08-12T03:54:35.273Z,1.20
2022-08-12T03:58:59.809Z,0.90
2022-08-12T04:03:03.116Z,1.00
2022-08-12T04:07:08.977Z,1.00
2022-08-12T04:11:32.187Z,1.15
2022-08-12T04:15:36.861Z,1.08
2022-08-12T04:19:40.987Z,1.17
2022-08-12T04:23:48.373Z,1.00
2022-08-12T04:27:52.109Z,1.15
2022-08-12T04:31:56.862Z,1.20
2022-08-12T04:35:59.951Z,1.08
2022-08-12T04:40:04.768Z,1.20
2022-08-12T04:44:08.952Z,1.10
2022-08-12T04:48:13.491Z,1.20
2022-08-12T04:52:19.793Z,1.13
2022-08-12T04:56:22.869Z,2.03
2022-08-12T05:00:27.556Z,1.20
2022-08-12T05:04:32.550Z,1.25
2022-08-12T05:08:36.868Z,1.30
2022-08-12T05:12:44.962Z,1.17
2022-08-12T05:16:48.057Z,1.40
2022-08-12T05:20:54.647Z,1.63
2022-08-12T05:24:57.719Z,1.50
2022-08-12T05:29:00.804Z,1.42
2022-08-12T05:33:06.357Z,1.70
2022-08-12T05:37:10.761Z,1.40
2022-08-12T05:41:20.672Z,1.30
2022-08-12T05:45:24.005Z,1.30
2022-08-12T05:49:27.175Z,1.60
2022-08-12T05:53:31.738Z,1.52
2022-08-12T05:57:34.835Z,1.30
2022-08-12T06:02:12.762Z,1.52
2022-08-12T06:06:03.525Z,1.38
2022-08-12T06:10:08.885Z,1.20
2022-08-12T06:14:12.347Z,1.50
2022-08-12T06:18:16.215Z,1.42
2022-08-12T06:22:19.614Z,1.30
2022-08-12T06:26:24.131Z,1.50
2022-08-12T06:30:36.769Z,1.40
2022-08-12T06:35:23.226Z,1.58
2022-08-12T06:39:04.771Z,1.40
2022-08-12T06:43:19.139Z,1.38
2022-08-12T06:47:22.235Z,1.50
2022-08-12T06:51:25.831Z,1.33
2022-08-12T06:55:30.228Z,1.40
2022-08-12T06:59:35.797Z,1.50
2022-08-12T07:03:39.343Z,1.60
2022-08-12T07:07:42.513Z,1.85
2022-08-12T07:11:50.758Z,1.60
2022-08-12T07:15:56.712Z,1.60
2022-08-12T07:20:04.274Z,1.88
2022-08-12T07:24:08.085Z,1.50
2022-08-12T07:28:16.790Z,1.60
2022-08-12T07:32:25.639Z,1.80
2022-08-12T07:36:33.968Z,1.40
2022-08-12T07:40:37.130Z,1.35
2022-08-12T07:44:40.252Z,1.60
2022-08-12T07:48:46.339Z,1.50
2022-08-12T07:52:49.823Z,1.55
2022-08-12T07:56:53.078Z,1.45
2022-08-12T08:00:59.714Z,1.52
2022-08-12T08:05:06.059Z,1.90
2022-08-12T08:09:11.247Z,1.50
2022-08-12T08:13:15.391Z,1.27
2022-08-12T08:17:18.585Z,1.40
2022-08-12T08:21:24.404Z,1.52
2022-08-12T08:25:36.529Z,1.20
2022-08-12T08:29:41.146Z,1.33
2022-08-12T08:34:05.039Z,1.30
2022-08-12T08:38:14.118Z,1.20
2022-08-12T08:42:40.569Z,1.10
2022-08-12T08:46:44.609Z,1.20
2022-08-12T08:50:47.856Z,1.13
2022-08-12T08:55:10.606Z,1.30
2022-08-12T08:59:14.661Z,1.30
2022-08-12T09:05:12.800Z,1.27
2022-08-12T09:12:30.084Z,1.08
2022-08-12T09:16:36.694Z,1.00
2022-08-12T09:20:44.229Z,1.35
2022-08-12T09:24:53.917Z,1.40
2022-08-12T09:29:00.759Z,1.10
2022-08-12T09:33:15.026Z,1.50
2022-08-12T09:37:28.379Z,1.17
2022-08-12T09:42:40.804Z,1.35
2022-08-12T09:46:36.021Z,1.15
2022-08-12T09:50:41.917Z,1.25
2022-08-12T09:54:59.823Z,1.23
2022-08-12T09:59:10.028Z,1.35
2022-08-12T10:03:31.272Z,1.10
2022-08-12T10:07:40.691Z,1.08
2022-08-12T10:12:11.922Z,1.50
2022-08-12T10:16:22.557Z,1.00
2022-08-12T10:20:27.442Z,1.20
2022-08-12T10:24:30.558Z,1.20
2022-08-12T10:28:56.292Z,1.00
2022-08-12T10:33:18.834Z,1.08
2022-08-12T10:38:35.506Z,1.20
2022-08-12T10:42:04.725Z,1.17
2022-08-12T10:46:09.126Z,0.90
2022-08-12T10:50:29.514Z,1.02
2022-08-12T10:54:43.088Z,1.00
2022-08-12T10:58:47.066Z,1.00
2022-08-12T11:04:27.680Z,0.82
2022-08-12T11:08:33.577Z,1.10
2022-08-12T11:12:36.982Z,1.10
2022-08-12T11:16:19.437Z,1.00
2022-08-12T11:20:29.080Z,1.00
2022-08-12T11:24:34.870Z,0.70
2022-08-12T11:28:40.849Z,0.90
2022-08-12T11:32:43.929Z,0.90
2022-08-12T11:36:56.243Z,0.90
2022-08-12T11:41:04.092Z,1.10
2022-08-12T11:45:10.316Z,0.80
2022-08-12T11:49:13.894Z,0.77
2022-08-12T11:53:59.497Z,0.90
2022-08-12T11:58:16.299Z,0.82
2022-08-12T12:02:23.024Z,0.85
2022-08-12T12:06:26.306Z,0.75
2022-08-12T12:10:29.567Z,0.90
2022-08-12T12:14:39.129Z,0.88
2022-08-12T12:18:43.876Z,0.90
2022-08-12T12:22:46.958Z,0.80
2022-08-12T12:27:00.798Z,0.80
2022-08-12T12:31:04.391Z,0.77
2022-08-12T12:35:14.150Z,0.80
2022-08-12T12:39:54.905Z,0.90
2022-08-12T12:43:56.629Z,1.00
2022-08-12T12:48:09.714Z,1.02
2022-08-12T12:52:18.489Z,1.00
2022-08-12T12:56:33.894Z,0.90
2022-08-12T13:00:42.544Z,0.80
2022-08-12T13:04:54.511Z,0.80
2022-08-12T13:09:02.539Z,0.70
2022-08-12T13:14:06.486Z,1.10
2022-08-12T13:18:01.949Z,1.00
2022-08-12T13:22:14.472Z,1.02
2022-08-12T13:26:22.643Z,1.00
2022-08-12T13:30:28.164Z,0.93
2022-08-12T13:34:35.655Z,0.77
2022-08-12T13:38:41.334Z,1.00
2022-08-12T13:42:50.961Z,0.85
2022-08-12T13:46:58.878Z,1.00
2022-08-12T13:51:04.410Z,0.90
2022-08-12T13:55:08.222Z,0.77
2022-08-12T13:59:13.522Z,1.05
2022-08-12T14:03:17.849Z,0.82
2022-08-12T14:07:20.935Z,1.10
2022-08-12T14:11:27.973Z,0.90
2022-08-12T14:15:38.502Z,1.00
2022-08-12T14:20:01.896Z,1.00
2022-08-12T14:24:09.570Z,0.82
2022-08-12T14:28:16.327Z,0.90
2022-08-12T14:32:20.900Z,1.00
2022-08-12T14:36:27.595Z,0.90
2022-08-12T14:40:31.449Z,0.80
2022-08-12T14:44:57.621Z,1.00
2022-08-12T14:49:27.501Z,0.90
2022-08-12T14:57:56.592Z,0.80
2022-08-12T15:02:00.527Z,1.00
2022-08-12T15:06:39.223Z,0.80
2022-08-12T15:10:34.108Z,0.90
2022-08-12T15:14:38.250Z,0.80
2022-08-12T15:18:55.528Z,1.17
2022-08-12T15:23:03.887Z,1.00
2022-08-12T15:27:09.435Z,1.10
2022-08-12T15:31:27.743Z,1.00
2022-08-12T15:35:49.928Z,0.88
2022-08-12T15:40:00.709Z,0.95
2022-08-12T15:44:37.309Z,0.85
2022-08-12T15:48:30.418Z,1.00
2022-08-12T15:52:33.711Z,1.10
2022-08-12T15:56:38.383Z,0.93
2022-08-12T16:00:42.311Z,1.10
2022-08-12T16:04:50.413Z,0.90
2022-08-12T16:08:54.348Z,1.10
2022-08-12T16:13:04.662Z,1.00
2022-08-12T16:17:15.515Z,1.10
2022-08-12T16:21:51.258Z,1.02
2022-08-12T16:26:05.326Z,1.17
2022-08-12T16:30:14.015Z,1.20
2022-08-12T16:34:26.087Z,1.15
2022-08-12T16:38:41.138Z,1.05
2022-08-12T16:42:53.777Z,1.00
2022-08-12T16:47:06.542Z,1.10
2022-08-12T16:51:12.331Z,1.00
2022-08-12T16:55:15.549Z,1.00
2022-08-12T16:59:21.871Z,1.10
2022-08-12T17:03:28.962Z,1.10
2022-08-12T17:07:43.104Z,1.00
2022-08-12T17:11:49.715Z,1.00
2022-08-12T17:16:04.926Z,1.10
2022-08-12T17:20:34.547Z,1.00
2022-08-12T17:24:36.793Z,1.25
2022-08-12T17:28:45.539Z,1.10
2022-08-12T17:32:57.169Z,1.00
2022-08-12T17:37:05.240Z,1.00
2022-08-12T17:41:22.524Z,1.40
2022-08-12T17:45:32.837Z,1.27
2022-08-12T17:50:03.150Z,1.33
2022-08-12T17:54:12.463Z,1.10
2022-08-12T17:58:17.596Z,1.00
2022-08-12T18:02:29.881Z,1.00
2022-08-12T18:06:34.784Z,1.00
2022-08-12T18:10:58.119Z,1.10
2022-08-12T18:15:27.014Z,0.82
2022-08-12T18:20:05.809Z,1.00
2022-08-12T18:24:05.421Z,1.00
2022-08-12T18:28:27.490Z,0.95
2022-08-12T18:32:58.254Z,1.00
2022-08-12T18:37:27.021Z,1.10
2022-08-12T18:41:33.521Z,1.40
2022-08-12T18:45:47.027Z,1.30
2022-08-12T18:50:00.036Z,1.00
2022-08-12T18:54:06.044Z,1.17
2022-08-12T18:58:14.028Z,1.10
2022-08-12T19:02:25.442Z,1.10
2022-08-12T19:06:36.473Z,1.10
2022-08-12T19:10:50.188Z,1.20
2022-08-12T19:15:04.288Z,1.15
2022-08-12T19:19:11.182Z,1.00
2022-08-12T19:23:21.274Z,1.20
2022-08-12T19:27:25.926Z,1.38
2022-08-12T19:31:56.443Z,1.33
2022-08-12T19:36:07.830Z,1.23
2022-08-12T19:40:32.928Z,1.42
2022-08-12T19:44:38.036Z,1.30
2022-08-12T19:48:45.043Z,1.33
2022-08-12T19:53:03.839Z,1.30
2022-08-12T19:57:11.399Z,1.30
2022-08-12T20:01:17.445Z,1.30
2022-08-12T20:06:06.289Z,1.23
2022-08-12T20:09:47.414Z,1.08
2022-08-12T20:14:01.506Z,1.20
2022-08-12T20:18:07.681Z,1.17
2022-08-12T20:22:31.695Z,1.30
2022-08-12T20:26:38.463Z,1.30
2022-08-12T20:30:59.633Z,1.33
2022-08-12T20:35:10.017Z,1.50
2022-08-12T20:39:17.866Z,1.50
2022-08-12T20:43:42.054Z,1.35
2022-08-12T20:47:47.293Z,1.20
2022-08-12T20:52:01.638Z,1.58
2022-08-12T20:56:19.607Z,1.40
2022-08-12T21:00:28.325Z,1.65
2022-08-12T21:04:49.157Z,1.38
2022-08-12T21:09:00.084Z,1.45
2022-08-12T21:13:04.607Z,1.40
2022-08-12T21:17:33.897Z,1.42
2022-08-12T21:21:53.821Z,1.50
2022-08-12T21:26:02.052Z,1.58
2022-08-12T21:30:06.332Z,1.60
2022-08-12T21:34:11.459Z,1.52
2022-08-12T21:38:15.621Z,1.50
2022-08-12T21:42:26.283Z,1.48
2022-08-12T21:46:34.950Z,1.80
2022-08-12T21:50:40.089Z,2.00
2022-08-12T21:54:46.703Z,1.80
2022-08-12T21:58:49.914Z,1.80
2022-08-12T22:03:10.769Z,1.90
2022-08-12T22:07:18.780Z,1.55
2022-08-12T22:11:23.492Z,1.50
2022-08-12T22:15:45.618Z,1.73
2022-08-12T22:19:54.319Z,1.77
2022-08-12T22:24:05.561Z,1.70
2022-08-12T22:28:26.412Z,1.92
2022-08-12T22:32:30.103Z,1.88
2022-08-12T22:36:33.492Z,1.75
2022-08-12T22:40:37.975Z,1.65
2022-08-12T22:44:59.078Z,1.73
2022-08-12T22:49:02.377Z,1.77
2022-08-12T22:53:18.393Z,2.10
2022-08-12T22:57:23.662Z,1.67
2022-08-12T23:01:52.187Z,1.70
2022-08-12T23:06:11.230Z,1.52
2022-08-12T23:10:14.471Z,1.55
2022-08-12T23:14:24.910Z,1.70
2022-08-12T23:18:33.361Z,1.73
2022-08-12T23:22:37.412Z,1.70
2022-08-12T23:26:58.023Z,1.55
2022-08-12T23:31:04.717Z,1.70
2022-08-12T23:35:09.666Z,1.70
2022-08-12T23:40:14.607Z,1.88
2022-08-12T23:43:50.090Z,1.55
2022-08-12T23:47:55.430Z,1.50
2022-08-12T23:52:07.096Z,1.80
2022-08-12T23:56:12.316Z,1.55
